Time;durP1;ratioP1;P1;durP2;ratioP2;P2;SDS_P1;SDS_P2;PMS_P1;PMS_P2;Temp;Humidity;BMP_temperature;BMP_pressure;BME280_temperature;BME280_humidity;BME280_pressure;Samples;Min_cycle;Max_cycle;Signal;HPM_P1;HPM_P2
2021/09/07 00:00:32;;;;;;;28.15;20.10;;;17.90;99.90;;;;;;5015095;28;20457;-76
2021/09/07 00:02:57;;;;;;;29.80;19.88;;;17.80;99.90;;;;;;5014324;28;20033;-76
2021/09/07 00:05:23;;;;;;;26.92;18.80;;;17.80;99.90;;;;;;5014846;28;20028;-76
2021/09/07 00:07:49;;;;;;;29.42;20.20;;;17.80;99.90;;;;;;5014994;28;20033;-76
2021/09/07 00:10:14;;;;;;;36.20;20.52;;;17.80;99.90;;;;;;5014235;28;20069;-75
2021/09/07 00:12:41;;;;;;;28.10;19.60;;;17.80;99.90;;;;;;5014642;28;20022;-76
2021/09/07 00:15:09;;;;;;;28.85;19.80;;;17.70;99.90;;;;;;5013937;28;20044;-76
2021/09/07 00:17:34;;;;;;;27.58;19.23;;;17.70;99.90;;;;;;5014549;28;20026;-76
2021/09/07 00:20:00;;;;;;;27.15;19.42;;;17.70;99.90;;;;;;5014960;28;20034;-75
2021/09/07 00:22:25;;;;;;;26.35;19.75;;;17.60;99.90;;;;;;5013883;28;20463;-75
2021/09/07 00:24:51;;;;;;;29.08;19.95;;;17.60;99.90;;;;;;5014430;28;20060;-76
2021/09/07 00:27:17;;;;;;;29.50;20.23;;;17.60;99.90;;;;;;5014464;28;20099;-76
2021/09/07 00:29:42;;;;;;;29.70;21.00;;;17.60;99.90;;;;;;5013575;28;20026;-76
2021/09/07 00:32:08;;;;;;;25.92;19.73;;;17.50;99.90;;;;;;5014403;28;20430;-77
2021/09/07 00:34:34;;;;;;;28.02;20.38;;;17.50;99.90;;;;;;5014190;28;20125;-76
2021/09/07 00:37:03;;;;;;;33.65;21.17;;;17.50;99.90;;;;;;5013892;28;20032;-76
2021/09/07 00:39:29;;;;;;;31.98;20.95;;;17.50;99.90;;;;;;5014543;28;20022;-76
2021/09/07 00:41:55;;;;;;;31.77;21.02;;;17.40;99.90;;;;;;5014096;28;20084;-76
2021/09/07 00:44:25;;;;;;;33.17;22.45;;;17.40;99.90;;;;;;5013576;28;20033;-75
2021/09/07 00:46:54;;;;;;;29.02;20.58;;;17.40;99.90;;;;;;5013982;28;20057;-75
2021/09/07 00:49:20;;;;;;;34.08;22.33;;;17.40;99.90;;;;;;5014574;28;20034;-75
2021/09/07 00:51:48;;;;;;;35.67;23.23;;;17.40;99.90;;;;;;5013135;28;20520;-76
2021/09/07 00:54:14;;;;;;;35.00;22.63;;;17.40;99.90;;;;;;5015000;28;20030;-76
2021/09/07 00:56:43;;;;;;;34.13;22.65;;;17.40;99.90;;;;;;5013840;28;20022;-75
2021/09/07 00:59:10;;;;;;;39.03;24.27;;;17.40;99.90;;;;;;5013499;28;20034;-75
2021/09/07 01:01:36;;;;;;;33.45;22.60;;;17.40;99.90;;;;;;5013763;28;20034;-74
2021/09/07 01:04:05;;;;;;;36.67;22.75;;;17.30;99.90;;;;;;5014093;28;20367;-75
2021/09/07 01:06:31;;;;;;;38.90;23.02;;;17.30;99.90;;;;;;5013150;28;20022;-75
2021/09/07 01:08:57;;;;;;;33.85;23.02;;;17.40;99.90;;;;;;5013787;28;20022;-76
2021/09/07 01:11:23;;;;;;;34.67;24.60;;;17.30;99.90;;;;;;5014037;28;20033;-75
2021/09/07 01:13:49;;;;;;;34.33;23.52;;;17.30;99.90;;;;;;5013695;28;20030;-76
2021/09/07 01:16:15;;;;;;;38.00;24.60;;;17.30;99.90;;;;;;5013947;28;20049;-75
2021/09/07 01:18:41;;;;;;;41.20;24.80;;;17.20;99.90;;;;;;5012799;28;20490;-76
2021/09/07 01:21:14;;;;;;;39.35;25.33;;;17.20;99.90;;;;;;5013693;28;20416;-76
2021/09/07 01:23:42;;;;;;;38.85;25.83;;;17.20;99.90;;;;;;5013177;28;20037;-76
2021/09/07 01:26:10;;;;;;;41.65;26.65;;;17.10;99.90;;;;;;5012967;28;20045;-76
2021/09/07 01:28:36;;;;;;;38.47;25.77;;;17.10;99.90;;;;;;5013539;28;20041;-76
2021/09/07 01:31:03;;;;;;;36.92;25.73;;;17.10;99.90;;;;;;5013899;28;20050;-76
2021/09/07 01:33:29;;;;;;;40.90;25.90;;;17.10;99.90;;;;;;5013028;28;20069;-76
2021/09/07 01:35:56;;;;;;;39.38;27.30;;;17.00;99.90;;;;;;5012848;28;20497;-76
2021/09/07 01:38:23;;;;;;;38.35;24.50;;;17.00;99.90;;;;;;5013151;28;20022;-76
2021/09/07 01:40:48;;;;;;;43.15;26.60;;;17.00;99.90;;;;;;5012297;28;20018;-76
2021/09/07 01:43:15;;;;;;;37.22;25.73;;;17.00;99.90;;;;;;5013325;28;20030;-76
2021/09/07 01:45:47;;;;;;;43.90;26.40;;;16.90;99.90;;;;;;5012878;28;20034;-76
2021/09/07 01:48:21;;;;;;;42.42;25.65;;;16.90;99.90;;;;;;5012343;28;20371;-76
2021/09/07 01:50:47;;;;;;;42.30;26.63;;;16.90;99.90;;;;;;5012435;28;20085;-77
2021/09/07 01:53:13;;;;;;;37.72;25.58;;;16.90;99.90;;;;;;5012917;28;20421;-75
2021/09/07 01:55:38;;;;;;;44.95;27.30;;;16.90;99.90;;;;;;5012257;28;20030;-75
2021/09/07 01:58:04;;;;;;;39.50;26.08;;;16.90;99.90;;;;;;5012239;28;20026;-76
2021/09/07 02:00:30;;;;;;;43.40;27.42;;;16.80;99.90;;;;;;5012607;28;20463;-75
2021/09/07 02:02:56;;;;;;;37.35;25.38;;;16.80;99.90;;;;;;5010170;28;20025;-75
2021/09/07 02:05:21;;;;;;;43.60;27.65;;;16.80;99.90;;;;;;5013039;28;20492;-75
2021/09/07 02:07:47;;;;;;;40.60;25.75;;;16.80;99.90;;;;;;5011555;28;20498;-75
2021/09/07 02:10:13;;;;;;;46.95;27.45;;;16.80;99.90;;;;;;5013053;28;20044;-75
2021/09/07 02:12:40;;;;;;;42.58;28.58;;;16.70;99.90;;;;;;5012700;28;20104;-75
2021/09/07 02:15:07;;;;;;;48.53;28.15;;;16.70;99.90;;;;;;5011962;28;20413;-76
2021/09/07 02:17:33;;;;;;;42.20;28.25;;;16.70;99.90;;;;;;5012360;28;20449;-76
2021/09/07 02:19:59;;;;;;;41.42;26.92;;;16.70;99.90;;;;;;5012570;28;20029;-77
2021/09/07 02:22:25;;;;;;;41.15;27.15;;;16.70;99.90;;;;;;5011825;28;20018;-76
2021/09/07 02:24:51;;;;;;;41.03;27.90;;;16.60;99.90;;;;;;5012527;28;20387;-76
2021/09/07 02:27:17;;;;;;;40.80;27.45;;;16.60;99.90;;;;;;5012588;28;20022;-77
2021/09/07 02:29:43;;;;;;;41.85;25.02;;;16.60;99.90;;;;;;5011816;28;20381;-76
2021/09/07 02:32:09;;;;;;;44.90;26.80;;;16.60;99.90;;;;;;5012806;28;20026;-75
2021/09/07 02:34:34;;;;;;;41.60;27.67;;;16.60;99.90;;;;;;5011847;28;20486;-76
2021/09/07 02:37:00;;;;;;;42.00;27.17;;;16.50;99.90;;;;;;5011968;28;20064;-76
2021/09/07 02:39:26;;;;;;;42.38;28.13;;;16.50;99.90;;;;;;5012442;28;20118;-76
2021/09/07 02:41:52;;;;;;;46.20;27.92;;;16.50;99.90;;;;;;5012215;28;20057;-76
2021/09/07 02:44:18;;;;;;;46.42;27.58;;;16.50;99.90;;;;;;5011538;28;20029;-76
2021/09/07 02:46:44;;;;;;;51.35;27.80;;;16.50;99.90;;;;;;5012168;28;20030;-76
2021/09/07 02:49:11;;;;;;;47.45;28.83;;;16.40;99.90;;;;;;5012240;28;20421;-76
2021/09/07 02:51:36;;;;;;;43.85;27.33;;;16.40;99.90;;;;;;5011007;28;20081;-76
2021/09/07 02:54:02;;;;;;;43.65;29.02;;;16.40;99.90;;;;;;5011860;28;20042;-76
2021/09/07 02:56:28;;;;;;;45.03;27.40;;;16.40;99.90;;;;;;5012113;28;20053;-75
2021/09/07 02:58:54;;;;;;;43.45;28.63;;;16.40;99.90;;;;;;5011331;28;20390;-76
2021/09/07 03:01:19;;;;;;;41.75;27.05;;;16.40;99.90;;;;;;5012232;28;20048;-76
2021/09/07 03:03:45;;;;;;;50.33;29.10;;;16.30;99.90;;;;;;5011465;28;20037;-76
2021/09/07 03:06:10;;;;;;;41.30;26.02;;;16.30;99.90;;;;;;5011743;28;20018;-76
2021/09/07 03:08:36;;;;;;;47.08;28.85;;;16.30;99.90;;;;;;5012656;28;20083;-76
2021/09/07 03:11:02;;;;;;;45.85;29.40;;;16.30;99.90;;;;;;5017027;28;20041;-76
2021/09/07 03:13:27;;;;;;;40.55;27.38;;;16.30;99.90;;;;;;5016674;28;20497;-76
2021/09/07 03:15:53;;;;;;;46.90;28.63;;;16.30;99.90;;;;;;5015779;28;20033;-75
2021/09/07 03:18:19;;;;;;;41.83;27.48;;;16.30;99.90;;;;;;5015195;28;20108;-76
2021/09/07 03:20:44;;;;;;;45.30;27.50;;;16.30;99.90;;;;;;5015709;28;20026;-76
2021/09/07 03:23:10;;;;;;;50.47;29.30;;;16.30;99.90;;;;;;5016080;28;20057;-76
2021/09/07 03:25:35;;;;;;;45.13;28.35;;;16.30;99.90;;;;;;5014929;28;20058;-75
2021/09/07 03:28:01;;;;;;;40.78;27.38;;;16.30;99.90;;;;;;5015816;28;20508;-76
2021/09/07 03:30:27;;;;;;;43.40;26.50;;;16.30;99.90;;;;;;5015720;28;20034;-76
2021/09/07 03:32:52;;;;;;;49.08;30.45;;;16.30;99.90;;;;;;5014793;28;20386;-76
2021/09/07 03:35:19;;;;;;;48.65;28.00;;;16.20;99.90;;;;;;5015632;28;20037;-77
2021/09/07 03:37:44;;;;;;;35.72;24.63;;;16.20;99.90;;;;;;5015343;28;20097;-76
2021/09/07 03:40:11;;;;;;;32.83;23.48;;;16.20;99.90;;;;;;5014958;28;20109;-77
2021/09/07 03:42:38;;;;;;;38.88;23.42;;;16.20;99.90;;;;;;5015382;28;20068;-76
2021/09/07 03:45:05;;;;;;;40.85;24.17;;;16.10;99.90;;;;;;5015619;28;20117;-76
2021/09/07 03:47:31;;;;;;;38.17;24.23;;;16.10;99.90;;;;;;5014826;28;20038;-77
2021/09/07 03:49:56;;;;;;;38.67;21.90;;;16.10;99.90;;;;;;5014913;28;20082;-76
2021/09/07 03:52:22;;;;;;;37.53;24.73;;;16.00;99.90;;;;;;5015533;28;20095;-77
2021/09/07 03:54:48;;;;;;;37.92;23.95;;;16.00;99.90;;;;;;5014207;28;20038;-76
2021/09/07 03:57:14;;;;;;;38.30;24.13;;;15.90;99.90;;;;;;5015330;28;20588;-76
2021/09/07 03:59:39;;;;;;;39.92;23.08;;;15.90;99.90;;;;;;5015117;28;20018;-76
2021/09/07 04:02:05;;;;;;;38.58;23.80;;;16.00;99.90;;;;;;5014533;28;20018;-75
2021/09/07 04:04:31;;;;;;;38.22;24.05;;;15.80;99.90;;;;;;5015083;28;20033;-76
2021/09/07 04:06:57;;;;;;;41.42;25.25;;;15.90;99.90;;;;;;5015024;28;20427;-76
2021/09/07 04:09:23;;;;;;;42.17;25.23;;;15.80;99.90;;;;;;5014357;28;20026;-76
2021/09/07 04:11:52;;;;;;;41.65;26.35;;;15.80;99.90;;;;;;5015237;28;20021;-75
2021/09/07 04:14:17;;;;;;;39.55;25.88;;;15.80;99.90;;;;;;5017432;28;20121;-75
2021/09/07 04:16:43;;;;;;;41.58;27.48;;;15.80;99.90;;;;;;5014574;28;20112;-77
2021/09/07 04:19:10;;;;;;;40.67;25.45;;;15.80;99.90;;;;;;5014792;28;20026;-76
2021/09/07 04:21:35;;;;;;;40.33;25.30;;;15.80;99.90;;;;;;5013928;28;20037;-76
2021/09/07 04:24:01;;;;;;;41.60;25.90;;;15.70;99.90;;;;;;5014843;28;20026;-75
2021/09/07 04:26:26;;;;;;;42.00;24.83;;;15.70;99.90;;;;;;5014892;28;20049;-76
2021/09/07 04:28:52;;;;;;;43.78;25.05;;;15.70;99.90;;;;;;5013467;28;20046;-75
2021/09/07 04:31:18;;;;;;;38.35;25.77;;;15.70;99.90;;;;;;5014528;28;20022;-75
2021/09/07 04:33:44;;;;;;;38.08;23.48;;;15.70;99.90;;;;;;5014377;28;20044;-76
2021/09/07 04:36:10;;;;;;;38.15;23.83;;;15.60;99.90;;;;;;5013999;28;20014;-76
2021/09/07 04:38:36;;;;;;;36.40;23.85;;;15.60;99.90;;;;;;5015230;28;20540;-76
2021/09/07 04:41:01;;;;;;;36.00;22.48;;;15.60;99.90;;;;;;5014441;28;20025;-76
2021/09/07 04:43:27;;;;;;;17.88;14.30;;;15.60;99.90;;;;;;5013819;28;20073;-76
2021/09/07 04:45:52;;;;;;;24.45;15.27;;;15.50;99.90;;;;;;5013775;28;20034;-76
2021/09/07 04:48:18;;;;;;;28.55;18.33;;;15.50;99.90;;;;;;5014366;28;20121;-77
2021/09/07 04:50:44;;;;;;;26.83;19.17;;;15.40;99.90;;;;;;5013060;28;20490;-75
2021/09/07 04:53:09;;;;;;;28.52;18.13;;;15.30;99.90;;;;;;5013794;28;20076;-74
2021/09/07 04:55:35;;;;;;;26.10;18.30;;;15.20;99.90;;;;;;5013638;28;20041;-74
2021/09/07 04:58:04;;;;;;;26.05;18.88;;;15.20;99.90;;;;;;5013192;28;20026;-75
2021/09/07 05:00:32;;;;;;;26.73;19.75;;;15.20;99.90;;;;;;5013813;28;20052;-75
2021/09/07 05:02:58;;;;;;;28.60;20.33;;;15.20;99.90;;;;;;5013194;28;20056;-75
2021/09/07 05:05:23;;;;;;;28.02;19.85;;;15.20;99.90;;;;;;5013003;28;20018;-75
2021/09/07 05:07:49;;;;;;;29.55;19.92;;;15.10;99.90;;;;;;5013513;28;20030;-77
2021/09/07 05:10:15;;;;;;;25.85;18.67;;;15.20;99.90;;;;;;5013762;28;20014;-77
2021/09/07 05:12:40;;;;;;;26.42;18.63;;;15.20;99.90;;;;;;5012923;28;20018;-77
2021/09/07 05:15:07;;;;;;;24.38;17.85;;;15.20;99.90;;;;;;5013441;28;20038;-74
2021/09/07 05:17:33;;;;;;;29.95;20.38;;;15.20;99.90;;;;;;5013249;28;20026;-76
2021/09/07 05:19:58;;;;;;;25.52;18.73;;;15.30;99.90;;;;;;5013804;28;20172;-76
2021/09/07 05:22:24;;;;;;;29.25;19.60;;;15.30;99.90;;;;;;5013693;28;20030;-77
2021/09/07 05:24:52;;;;;;;27.85;19.35;;;15.40;99.90;;;;;;5012879;28;20030;-77
2021/09/07 05:27:18;;;;;;;30.35;20.10;;;15.40;99.90;;;;;;5013519;28;20109;-75
2021/09/07 05:29:43;;;;;;;31.02;20.48;;;15.50;99.90;;;;;;5013229;28;20600;-76
2021/09/07 05:32:10;;;;;;;29.88;21.35;;;15.60;99.90;;;;;;5012243;28;20022;-76
2021/09/07 05:34:37;;;;;;;35.38;22.48;;;15.70;99.90;;;;;;5013305;28;20482;-76
2021/09/07 05:37:03;;;;;;;41.25;22.80;;;15.80;99.90;;;;;;5013463;28;20029;-76
2021/09/07 05:39:28;;;;;;;36.47;23.35;;;15.80;99.90;;;;;;5012534;28;20026;-76
2021/09/07 05:41:54;;;;;;;36.90;23.95;;;15.90;99.90;;;;;;5012778;28;20030;-76
2021/09/07 05:44:21;;;;;;;32.78;23.30;;;16.00;99.90;;;;;;5012873;28;20026;-76
2021/09/07 05:46:47;;;;;;;42.17;26.08;;;16.10;99.90;;;;;;5012466;28;20037;-76
2021/09/07 05:49:13;;;;;;;40.15;25.42;;;16.20;99.90;;;;;;5013133;28;20033;-77
2021/09/07 05:51:38;;;;;;;38.00;24.95;;;16.30;99.90;;;;;;5012543;28;20077;-76
2021/09/07 05:54:04;;;;;;;41.97;25.38;;;16.40;99.90;;;;;;5012496;28;20386;-76
2021/09/07 05:56:29;;;;;;;35.20;24.00;;;16.40;99.90;;;;;;5012900;28;20022;-75
2021/09/07 05:58:57;;;;;;;40.80;24.83;;;16.50;99.90;;;;;;5011327;28;20121;-76
2021/09/07 06:01:23;;;;;;;37.88;24.83;;;16.60;99.90;;;;;;5000347;28;20048;-76
2021/09/07 06:03:49;;;;;;;39.80;24.55;;;16.60;99.90;;;;;;4993098;28;20030;-76
2021/09/07 06:06:15;;;;;;;43.95;26.88;;;16.70;99.90;;;;;;4994124;28;20022;-76
2021/09/07 06:08:41;;;;;;;40.70;27.33;;;16.80;99.90;;;;;;4997037;28;20065;-76
2021/09/07 06:11:07;;;;;;;43.10;25.83;;;16.90;99.90;;;;;;4995322;28;20026;-76
2021/09/07 06:13:33;;;;;;;43.35;26.67;;;17.00;99.90;;;;;;4994650;28;20037;-76
2021/09/07 06:15:59;;;;;;;41.88;26.08;;;17.00;99.90;;;;;;4994090;28;20106;-76
2021/09/07 06:18:25;;;;;;;42.92;28.27;;;17.10;99.90;;;;;;4992516;28;20033;-76
2021/09/07 06:20:51;;;;;;;46.72;28.00;;;17.20;99.90;;;;;;4993660;28;20018;-76
2021/09/07 06:23:16;;;;;;;46.13;27.50;;;17.30;99.90;;;;;;4993071;28;20057;-76
2021/09/07 06:25:42;;;;;;;54.20;29.02;;;17.30;99.90;;;;;;4994680;28;20529;-76
2021/09/07 06:28:07;;;;;;;47.58;30.27;;;17.40;99.90;;;;;;4994158;28;20038;-76
2021/09/07 06:30:33;;;;;;;49.78;31.55;;;17.50;99.90;;;;;;4998920;28;20058;-76
2021/09/07 06:32:59;;;;;;;49.15;31.10;;;17.50;99.90;;;;;;4993810;28;20479;-76
2021/09/07 06:35:24;;;;;;;51.67;30.73;;;17.60;99.90;;;;;;4998029;28;20029;-76
2021/09/07 06:37:50;;;;;;;51.10;31.38;;;17.70;99.90;;;;;;4999015;28;20030;-78
2021/09/07 06:40:16;;;;;;;49.97;30.95;;;17.80;99.90;;;;;;5008017;28;20030;-77
2021/09/07 06:42:41;;;;;;;48.13;30.85;;;17.80;99.90;;;;;;5009415;28;20034;-77
2021/09/07 06:45:07;;;;;;;50.13;30.88;;;17.90;99.90;;;;;;5010421;28;20405;-77
2021/09/07 06:47:33;;;;;;;53.72;32.55;;;17.90;99.90;;;;;;5010659;28;20022;-77
2021/09/07 06:50:02;;;;;;;52.17;31.52;;;18.40;99.90;;;;;;5010553;28;20107;-77
2021/09/07 06:52:29;;;;;;;47.17;30.52;;;18.00;99.90;;;;;;5011214;28;20458;-76
2021/09/07 06:54:54;;;;;;;49.58;30.48;;;18.10;99.90;;;;;;5006944;28;20038;-76
2021/09/07 06:57:20;;;;;;;56.80;33.40;;;18.20;99.90;;;;;;5010532;28;20025;-76
2021/09/07 06:59:45;;;;;;;56.72;33.58;;;18.20;99.90;;;;;;5010806;28;20108;-76
2021/09/07 07:02:11;;;;;;;55.40;33.47;;;18.40;99.90;;;;;;5011551;28;20022;-76
2021/09/07 07:04:37;;;;;;;48.28;30.42;;;18.40;99.90;;;;;;5010928;28;20030;-77
2021/09/07 07:07:02;;;;;;;51.17;32.22;;;18.50;99.90;;;;;;5011718;28;20017;-76
2021/09/07 07:09:28;;;;;;;49.95;33.53;;;18.50;99.90;;;;;;5011039;28;20497;-78
2021/09/07 07:11:53;;;;;;;45.63;30.40;;;18.60;99.90;;;;;;5008526;28;20105;-77
2021/09/07 07:14:21;;;;;;;56.63;31.77;;;18.70;99.90;;;;;;5011537;28;20034;-77
2021/09/07 07:16:48;;;;;;;56.17;32.60;;;18.70;99.90;;;;;;5008975;28;20347;-77
2021/09/07 07:19:14;;;;;;;61.92;30.92;;;18.80;99.90;;;;;;5011405;28;20033;-77
2021/09/07 07:21:40;;;;;;;55.10;34.08;;;18.90;99.90;;;;;;5011513;28;20022;-76
2021/09/07 07:24:05;;;;;;;61.20;33.38;;;19.00;99.90;;;;;;5011173;28;20165;-77
2021/09/07 07:26:31;;;;;;;55.47;33.17;;;19.10;99.90;;;;;;5011755;28;20073;-77
2021/09/07 07:28:57;;;;;;;47.55;30.13;;;19.20;99.90;;;;;;5011773;28;20026;-76
2021/09/07 07:31:23;;;;;;;58.92;32.08;;;19.30;99.90;;;;;;5011403;28;20018;-75
2021/09/07 07:33:48;;;;;;;63.05;33.60;;;19.30;99.90;;;;;;5011960;28;20045;-77
2021/09/07 07:36:14;;;;;;;49.95;29.73;;;19.40;99.90;;;;;;5012698;28;20529;-75
2021/09/07 07:38:39;;;;;;;53.13;32.92;;;19.40;99.90;;;;;;5011115;28;20093;-75
2021/09/07 07:41:05;;;;;;;60.05;31.70;;;19.50;99.90;;;;;;5012176;28;20114;-77
2021/09/07 07:43:33;;;;;;;55.00;30.95;;;19.50;99.90;;;;;;5012074;28;20029;-76
2021/09/07 07:45:59;;;;;;;50.20;30.77;;;19.50;99.90;;;;;;5011300;28;20076;-76
2021/09/07 07:48:24;;;;;;;47.55;28.42;;;19.60;99.90;;;;;;5013171;28;20022;-76
2021/09/07 07:50:50;;;;;;;45.65;29.13;;;19.60;99.90;;;;;;5014398;28;20109;-77
2021/09/07 07:53:16;;;;;;;48.92;28.25;;;19.60;99.90;;;;;;5013116;28;20021;-78
2021/09/07 07:55:41;;;;;;;44.58;27.10;;;19.60;99.90;;;;;;5014041;28;20437;-79
2021/09/07 07:58:07;;;;;;;40.80;29.80;;;19.70;99.90;;;;;;5017773;28;20022;-77
2021/09/07 08:00:32;;;;;;;54.08;29.30;;;19.70;99.90;;;;;;5014967;28;20348;-75
2021/09/07 08:02:58;;;;;;;44.70;28.58;;;19.80;99.90;;;;;;5015224;28;20449;-75
2021/09/07 08:05:24;;;;;;;48.40;27.98;;;19.80;99.90;;;;;;5015216;28;20094;-74
2021/09/07 08:07:49;;;;;;;45.47;27.42;;;19.90;99.90;;;;;;5015056;28;20029;-74
2021/09/07 08:10:15;;;;;;;48.80;28.20;;;20.00;99.90;;;;;;5015207;28;20112;-74
2021/09/07 08:12:41;;;;;;;40.15;26.52;;;20.00;99.90;;;;;;5015131;28;20033;-77
2021/09/07 08:15:07;;;;;;;38.10;25.25;;;20.10;99.90;;;;;;5014374;28;20070;-79
2021/09/07 08:17:33;;;;;;;42.05;27.83;;;20.20;99.90;;;;;;5014907;28;20117;-79
2021/09/07 08:19:58;;;;;;;44.95;27.05;;;20.20;99.90;;;;;;5014793;28;20109;-78
2021/09/07 08:22:24;;;;;;;41.28;27.25;;;20.20;99.90;;;;;;5014099;28;20041;-78
2021/09/07 08:24:50;;;;;;;44.80;28.27;;;20.20;99.90;;;;;;5014777;28;20056;-78
2021/09/07 08:27:17;;;;;;;39.08;26.90;;;20.30;99.90;;;;;;5014429;28;20033;-77
2021/09/07 08:29:42;;;;;;;37.75;27.90;;;20.30;99.90;;;;;;5012512;28;20041;-76
2021/09/07 08:32:08;;;;;;;48.22;29.70;;;20.40;99.90;;;;;;5014719;28;20363;-78
2021/09/07 08:34:34;;;;;;;38.13;27.10;;;20.40;99.90;;;;;;5014399;28;20034;-78
2021/09/07 08:36:59;;;;;;;45.95;28.35;;;20.50;99.90;;;;;;5020811;28;20129;-76
2021/09/07 08:39:25;;;;;;;47.05;28.98;;;20.60;99.90;;;;;;5014897;28;20014;-77
2021/09/07 08:41:51;;;;;;;46.63;28.40;;;20.70;99.90;;;;;;5012643;28;20036;-78
2021/09/07 08:44:21;;;;;;;48.58;29.30;;;20.80;99.90;;;;;;4997098;28;20050;-78
2021/09/07 08:46:47;;;;;;;43.88;31.00;;;20.90;99.90;;;;;;5004304;28;20030;-77
2021/09/07 08:49:16;;;;;;;38.10;26.95;;;21.00;99.90;;;;;;4999876;28;20807;-77
2021/09/07 08:51:42;;;;;;;43.00;29.08;;;21.10;99.90;;;;;;5001726;28;20073;-80
2021/09/07 08:54:08;;;;;;;46.75;28.67;;;21.20;99.90;;;;;;5001134;28;20112;-78
2021/09/07 08:56:33;;;;;;;41.38;27.95;;;21.20;99.90;;;;;;5002241;28;20022;-79
2021/09/07 08:58:59;;;;;;;50.88;29.27;;;21.30;99.90;;;;;;5000857;28;20044;-80
2021/09/07 09:01:25;;;;;;;41.72;28.00;;;21.30;99.90;;;;;;4996751;28;20026;-81
2021/09/07 09:03:51;;;;;;;46.45;26.70;;;21.30;99.90;;;;;;4999261;28;20225;-79
2021/09/07 09:06:26;;;;;;;45.13;27.13;;;21.40;99.90;;;;;;4997266;28;20026;-79
2021/09/07 09:09:05;;;;;;;40.28;24.75;;;21.50;99.90;;;;;;4996024;28;20027;-80
2021/09/07 09:11:52;;;;;;;40.20;24.98;;;21.60;99.90;;;;;;4997047;28;20026;-80
2021/09/07 09:14:36;;;;;;;37.72;24.38;;;21.60;99.90;;;;;;4999450;28;20029;-79
2021/09/07 09:17:22;;;;;;;40.80;25.05;;;21.70;99.90;;;;;;5002924;28;20029;-81
2021/09/07 09:20:03;;;;;;;33.60;22.83;;;21.60;99.90;;;;;;4992860;28;20475;-79
2021/09/07 09:22:50;;;;;;;32.67;21.98;;;21.70;99.90;;;;;;5010489;28;20550;-78
2021/09/07 09:25:22;;;;;;;30.65;21.98;;;21.80;99.90;;;;;;4993431;28;20497;-79
2021/09/07 09:28:09;;;;;;;30.85;22.05;;;21.90;99.90;;;;;;5012711;28;20478;-78
2021/09/07 09:30:44;;;;;;;29.13;21.27;;;21.90;99.90;;;;;;5009112;28;20068;-79
2021/09/07 09:33:15;;;;;;;32.28;23.08;;;22.60;99.90;;;;;;5013154;28;20076;-79
2021/09/07 09:35:48;;;;;;;36.50;23.77;;;22.00;99.90;;;;;;5012754;28;20125;-79
2021/09/07 09:38:14;;;;;;;32.20;20.80;;;22.10;99.90;;;;;;5012594;28;20049;-79
2021/09/07 09:40:40;;;;;;;28.17;20.15;;;22.10;99.90;;;;;;5013044;28;20029;-78
2021/09/07 09:43:30;;;;;;;29.20;21.38;;;22.10;99.90;;;;;;5013445;28;20093;-79
2021/09/07 09:45:56;;;;;;;30.45;21.60;;;22.20;99.90;;;;;;5008334;28;20057;-79
2021/09/07 09:48:23;;;;;;;33.20;23.23;;;22.20;99.90;;;;;;5013258;28;20026;-78
2021/09/07 09:50:54;;;;;;;29.25;21.45;;;22.20;99.90;;;;;;5005868;28;20136;-80
2021/09/07 09:53:21;;;;;;;34.22;21.17;;;22.30;99.90;;;;;;5012189;28;20076;-80
2021/09/07 09:55:48;;;;;;;27.80;21.02;;;22.30;99.90;;;;;;5012826;28;20068;-80
2021/09/07 09:58:16;;;;;;;27.05;20.90;;;22.30;99.90;;;;;;5012926;28;20104;-79
2021/09/07 10:00:50;;;;;;;27.52;20.33;;;22.40;99.90;;;;;;5011867;28;20113;-80
2021/09/07 10:03:16;;;;;;;30.25;20.83;;;22.50;99.90;;;;;;5013038;28;20026;-75
2021/09/07 10:05:44;;;;;;;28.75;19.88;;;22.50;99.90;;;;;;5012542;28;20065;-78
2021/09/07 10:08:11;;;;;;;33.22;21.55;;;22.60;99.90;;;;;;5012177;28;20018;-79
2021/09/07 10:10:58;;;;;;;37.03;22.90;;;22.70;99.90;;;;;;5012536;28;20456;-79
2021/09/07 10:13:26;;;;;;;27.48;20.20;;;22.80;99.90;;;;;;5012340;28;20071;-78
2021/09/07 10:15:57;;;;;;;27.88;19.23;;;22.90;99.90;;;;;;5012564;28;20038;-77
2021/09/07 10:18:35;;;;;;;31.48;20.23;;;23.00;99.90;;;;;;5012654;28;20105;-81
2021/09/07 10:24:20;;;;;;;30.33;19.95;;;23.10;99.90;;;;;;5012754;28;20022;-78
2021/09/07 10:26:40;;;;;;;27.40;19.23;;;23.20;99.90;;;;;;5002681;28;20084;-82
2021/09/07 10:29:13;;;;;;;24.00;18.73;;;23.20;99.90;;;;;;5012155;28;20022;-81
2021/09/07 10:31:53;;;;;;;28.77;18.42;;;23.30;99.90;;;;;;5017611;28;20065;-82
2021/09/07 10:34:25;;;;;;;28.90;20.20;;;23.40;99.90;;;;;;5011922;28;20438;-81
2021/09/07 10:36:57;;;;;;;23.30;17.58;;;23.50;99.90;;;;;;5012728;28;20378;-83
2021/09/07 10:39:36;;;;;;;27.33;17.15;;;23.50;99.90;;;;;;5013036;28;20025;-82
2021/09/07 10:42:07;;;;;;;26.90;17.60;;;23.60;99.80;;;;;;5012265;28;20029;-83
2021/09/07 10:44:41;;;;;;;21.30;16.55;;;23.60;99.90;;;;;;5012929;28;20030;-83
2021/09/07 10:47:12;;;;;;;21.83;17.13;;;23.50;99.50;;;;;;5012641;28;20022;-83
2021/09/07 10:49:46;;;;;;;21.80;16.48;;;23.60;99.60;;;;;;5001600;28;20053;-81
2021/09/07 10:52:19;;;;;;;21.58;16.65;;;23.70;99.70;;;;;;4993289;28;20444;-81
2021/09/07 10:55:12;;;;;;;23.67;16.58;;;23.80;99.30;;;;;;4994555;28;20045;-81
2021/09/07 10:57:39;;;;;;;28.85;18.08;;;24.00;99.10;;;;;;4993491;28;20038;-83
2021/09/07 11:00:14;;;;;;;27.63;17.73;;;24.00;98.90;;;;;;4994005;28;20034;-82
2021/09/07 11:02:48;;;;;;;25.33;16.80;;;24.10;98.90;;;;;;4992244;28;20030;-82
2021/09/07 11:05:23;;;;;;;26.15;18.33;;;24.00;98.70;;;;;;4995801;28;20027;-82
2021/09/07 11:07:50;;;;;;;28.02;16.92;;;24.00;98.40;;;;;;4994991;28;20561;-82
2021/09/07 11:10:18;;;;;;;35.90;19.55;;;24.10;98.50;;;;;;5011596;28;20026;-83
2021/09/07 11:12:52;;;;;;;26.13;18.58;;;24.10;98.60;;;;;;5013028;28;20053;-85
2021/09/07 11:15:21;;;;;;;26.20;18.75;;;24.20;98.60;;;;;;5012664;28;20044;-86
2021/09/07 11:18:07;;;;;;;24.58;18.77;;;24.30;98.50;;;;;;5014033;28;20048;-85
2021/09/07 11:20:39;;;;;;;26.30;17.85;;;24.30;98.50;;;;;;5014309;28;20359;-85
2021/09/07 11:23:17;;;;;;;26.50;18.58;;;24.30;98.40;;;;;;5014180;28;20025;-84
2021/09/07 11:26:04;;;;;;;25.95;18.10;;;24.40;98.20;;;;;;5006913;28;20482;-83
2021/09/07 11:28:31;;;;;;;24.65;18.48;;;24.40;98.00;;;;;;4994975;28;20038;-84
2021/09/07 11:30:58;;;;;;;25.05;17.42;;;24.40;97.70;;;;;;5006029;28;20022;-83
2021/09/07 11:33:27;;;;;;;20.48;16.02;;;24.50;97.40;;;;;;5004332;28;20033;-84
2021/09/07 11:36:09;;;;;;;22.02;16.25;;;24.50;97.00;;;;;;5009891;28;20076;-82
2021/09/07 11:38:40;;;;;;;22.17;15.10;;;24.60;96.90;;;;;;5002418;28;20098;-82
2021/09/07 11:41:11;;;;;;;24.00;16.55;;;24.50;96.60;;;;;;5003800;28;20037;-83
2021/09/07 11:43:39;;;;;;;19.83;15.45;;;24.60;96.40;;;;;;5010756;28;20051;-84
2021/09/07 11:46:30;;;;;;;20.30;15.25;;;24.70;96.60;;;;;;5001244;28;20017;-86
2021/09/07 11:49:08;;;;;;;26.92;15.10;;;24.80;96.30;;;;;;4998557;28;20429;-83
2021/09/07 11:51:36;;;;;;;22.48;16.00;;;25.00;96.10;;;;;;5010017;28;20042;-85
2021/09/07 11:54:04;;;;;;;20.08;15.13;;;25.00;96.20;;;;;;5015210;28;20044;-84
2021/09/07 11:56:32;;;;;;;22.67;16.90;;;25.00;95.80;;;;;;5015372;28;20022;-83
2021/09/07 11:59:14;;;;;;;24.65;17.90;;;25.10;95.80;;;;;;5006753;28;20544;-84
2021/09/07 12:01:45;;;;;;;22.45;16.10;;;25.10;95.90;;;;;;5013028;28;20532;-84
2021/09/07 12:04:15;;;;;;;20.08;15.57;;;25.10;95.70;;;;;;5016957;28;20026;-81
2021/09/07 12:06:51;;;;;;;22.45;16.73;;;25.30;96.00;;;;;;5015348;28;20040;-82
2021/09/07 12:09:30;;;;;;;25.52;16.60;;;25.20;95.90;;;;;;5016614;28;20041;-83
2021/09/07 12:12:11;;;;;;;20.17;17.77;;;25.30;95.90;;;;;;5014270;28;20025;-82
2021/09/07 12:14:37;;;;;;;;;;;25.40;95.90;;;;;;5031508;28;20117;-84
2021/09/07 12:17:06;;;;;;;18.67;14.82;;;25.30;95.60;;;;;;5018476;28;19910;-83
2021/09/07 12:19:34;;;;;;;22.30;15.02;;;25.50;95.90;;;;;;5016141;28;20030;-76
2021/09/07 12:22:23;;;;;;;18.77;14.52;;;25.50;95.80;;;;;;5015265;28;20030;-80
2021/09/07 12:25:12;;;;;;;22.90;16.33;;;25.60;95.10;;;;;;5015821;28;20479;-82
2021/09/07 12:27:46;;;;;;;18.48;13.93;;;25.70;95.10;;;;;;5014531;28;20033;-81
2021/09/07 12:30:22;;;;;;;13.57;9.93;;;25.80;95.00;;;;;;5015085;28;20022;-82
2021/09/07 12:33:06;;;;;;;16.15;14.35;;;25.70;94.40;;;;;;5003989;28;20033;-81
2021/09/07 12:35:35;;;;;;;22.23;15.80;;;25.70;94.50;;;;;;5001259;28;20042;-80